sensor_id;sensor_type;location;lat;lon;timestamp;P1;durP1;ratioP1;P2;durP2;ratioP2
12363;SDS011;6246;50.826;4.712;2024-02-16T00:01:31;14.03;;;10.60;;
12363;SDS011;6246;50.826;4.712;2024-02-16T00:03:57;13.27;;;10.57;;
12363;SDS011;6246;50.826;4.712;2024-02-16T00:06:23;14.37;;;10.70;;
12363;SDS011;6246;50.826;4.712;2024-02-16T00:08:49;14.17;;;10.73;;
12363;SDS011;6246;50.826;4.712;2024-02-16T00:11:15;14.60;;;10.73;;
12363;SDS011;6246;50.826;4.712;2024-02-16T00:13:41;12.83;;;10.17;;
12363;SDS011;6246;50.826;4.712;2024-02-16T00:16:07;12.80;;;10.27;;
12363;SDS011;6246;50.826;4.712;2024-02-16T00:18:34;12.83;;;10.00;;
12363;SDS011;6246;50.826;4.712;2024-02-16T00:21:00;11.90;;;9.77;;
12363;SDS011;6246;50.826;4.712;2024-02-16T00:23:26;11.07;;;9.63;;
12363;SDS011;6246;50.826;4.712;2024-02-16T00:25:52;12.70;;;10.00;;
12363;SDS011;6246;50.826;4.712;2024-02-16T00:28:18;13.87;;;9.87;;
12363;SDS011;6246;50.826;4.712;2024-02-16T00:30:44;14.70;;;9.40;;
12363;SDS011;6246;50.826;4.712;2024-02-16T00:33:12;12.70;;;10.00;;
12363;SDS011;6246;50.826;4.712;2024-02-16T00:35:38;10.67;;;8.70;;
12363;SDS011;6246;50.826;4.712;2024-02-16T00:38:04;11.30;;;9.27;;
12363;SDS011;6246;50.826;4.712;2024-02-16T00:40:30;12.27;;;9.43;;
12363;SDS011;6246;50.826;4.712;2024-02-16T00:42:56;11.83;;;9.53;;
12363;SDS011;6246;50.826;4.712;2024-02-16T00:45:22;12.00;;;8.80;;
12363;SDS011;6246;50.826;4.712;2024-02-16T00:47:48;10.87;;;8.60;;
12363;SDS011;6246;50.826;4.712;2024-02-16T00:50:14;11.47;;;9.00;;
12363;SDS011;6246;50.826;4.712;2024-02-16T00:52:40;11.27;;;9.50;;
12363;SDS011;6246;50.826;4.712;2024-02-16T00:55:07;12.70;;;9.10;;
12363;SDS011;6246;50.826;4.712;2024-02-16T00:57:34;10.10;;;8.57;;
12363;SDS011;6246;50.826;4.712;2024-02-16T01:00:01;9.80;;;8.30;;
12363;SDS011;6246;50.826;4.712;2024-02-16T01:02:28;9.30;;;8.30;;
12363;SDS011;6246;50.826;4.712;2024-02-16T01:04:54;11.37;;;8.60;;
12363;SDS011;6246;50.826;4.712;2024-02-16T01:07:26;9.47;;;8.07;;
12363;SDS011;6246;50.826;4.712;2024-02-16T01:09:53;18.73;;;9.00;;
12363;SDS011;6246;50.826;4.712;2024-02-16T01:12:19;15.53;;;8.03;;
12363;SDS011;6246;50.826;4.712;2024-02-16T01:14:45;12.33;;;8.50;;
12363;SDS011;6246;50.826;4.712;2024-02-16T01:17:11;11.70;;;8.13;;
12363;SDS011;6246;50.826;4.712;2024-02-16T01:19:37;13.03;;;8.93;;
12363;SDS011;6246;50.826;4.712;2024-02-16T01:22:03;13.27;;;10.67;;
12363;SDS011;6246;50.826;4.712;2024-02-16T01:24:29;15.43;;;13.70;;
12363;SDS011;6246;50.826;4.712;2024-02-16T01:26:55;19.83;;;16.43;;
12363;SDS011;6246;50.826;4.712;2024-02-16T01:29:22;25.27;;;19.00;;
12363;SDS011;6246;50.826;4.712;2024-02-16T01:31:48;24.10;;;18.10;;
12363;SDS011;6246;50.826;4.712;2024-02-16T01:34:14;23.63;;;16.63;;
12363;SDS011;6246;50.826;4.712;2024-02-16T01:36:40;18.80;;;15.57;;
12363;SDS011;6246;50.826;4.712;2024-02-16T01:39:06;18.77;;;13.93;;
12363;SDS011;6246;50.826;4.712;2024-02-16T01:41:32;17.77;;;14.13;;
12363;SDS011;6246;50.826;4.712;2024-02-16T01:43:58;18.10;;;14.00;;
12363;SDS011;6246;50.826;4.712;2024-02-16T01:46:25;16.50;;;12.40;;
12363;SDS011;6246;50.826;4.712;2024-02-16T01:48:51;16.50;;;12.67;;
12363;SDS011;6246;50.826;4.712;2024-02-16T01:51:18;15.63;;;12.30;;
12363;SDS011;6246;50.826;4.712;2024-02-16T01:53:44;14.50;;;11.97;;
12363;SDS011;6246;50.826;4.712;2024-02-16T01:56:11;13.33;;;11.43;;
12363;SDS011;6246;50.826;4.712;2024-02-16T01:58:37;15.00;;;11.43;;
12363;SDS011;6246;50.826;4.712;2024-02-16T02:01:03;13.97;;;11.50;;
12363;SDS011;6246;50.826;4.712;2024-02-16T02:03:29;14.57;;;11.10;;
12363;SDS011;6246;50.826;4.712;2024-02-16T02:05:55;14.10;;;11.27;;
12363;SDS011;6246;50.826;4.712;2024-02-16T02:08:21;13.83;;;11.20;;
12363;SDS011;6246;50.826;4.712;2024-02-16T02:10:47;13.87;;;11.33;;
12363;SDS011;6246;50.826;4.712;2024-02-16T02:13:14;14.57;;;11.13;;
12363;SDS011;6246;50.826;4.712;2024-02-16T02:15:40;14.17;;;10.53;;
12363;SDS011;6246;50.826;4.712;2024-02-16T02:18:06;12.10;;;9.30;;
12363;SDS011;6246;50.826;4.712;2024-02-16T02:20:32;13.07;;;10.63;;
12363;SDS011;6246;50.826;4.712;2024-02-16T02:22:58;12.40;;;10.47;;
12363;SDS011;6246;50.826;4.712;2024-02-16T02:25:24;13.07;;;10.13;;
12363;SDS011;6246;50.826;4.712;2024-02-16T02:27:53;13.60;;;10.07;;
12363;SDS011;6246;50.826;4.712;2024-02-16T02:30:19;12.90;;;10.23;;
12363;SDS011;6246;50.826;4.712;2024-02-16T02:32:46;11.33;;;9.17;;
12363;SDS011;6246;50.826;4.712;2024-02-16T02:35:12;13.87;;;10.13;;
12363;SDS011;6246;50.826;4.712;2024-02-16T02:37:39;13.90;;;9.70;;
12363;SDS011;6246;50.826;4.712;2024-02-16T02:40:06;12.90;;;9.70;;
12363;SDS011;6246;50.826;4.712;2024-02-16T02:42:33;13.27;;;10.43;;
12363;SDS011;6246;50.826;4.712;2024-02-16T02:44:59;12.80;;;9.93;;
12363;SDS011;6246;50.826;4.712;2024-02-16T02:47:25;10.87;;;9.73;;
12363;SDS011;6246;50.826;4.712;2024-02-16T02:49:51;12.33;;;9.40;;
12363;SDS011;6246;50.826;4.712;2024-02-16T02:52:17;11.00;;;9.40;;
12363;SDS011;6246;50.826;4.712;2024-02-16T02:54:43;11.67;;;9.17;;
12363;SDS011;6246;50.826;4.712;2024-02-16T02:57:09;11.90;;;9.37;;
12363;SDS011;6246;50.826;4.712;2024-02-16T02:59:35;12.50;;;9.93;;
12363;SDS011;6246;50.826;4.712;2024-02-16T03:02:01;12.00;;;9.33;;
12363;SDS011;6246;50.826;4.712;2024-02-16T03:04:27;11.90;;;9.47;;
12363;SDS011;6246;50.826;4.712;2024-02-16T03:06:53;11.47;;;8.87;;
12363;SDS011;6246;50.826;4.712;2024-02-16T03:09:19;10.70;;;8.77;;
12363;SDS011;6246;50.826;4.712;2024-02-16T03:11:45;10.93;;;8.27;;
12363;SDS011;6246;50.826;4.712;2024-02-16T03:14:11;11.53;;;8.63;;
12363;SDS011;6246;50.826;4.712;2024-02-16T03:16:38;10.37;;;8.70;;
12363;SDS011;6246;50.826;4.712;2024-02-16T03:19:07;9.87;;;8.33;;
12363;SDS011;6246;50.826;4.712;2024-02-16T03:21:34;10.77;;;8.43;;
12363;SDS011;6246;50.826;4.712;2024-02-16T03:24:01;10.13;;;8.23;;
12363;SDS011;6246;50.826;4.712;2024-02-16T03:26:27;10.23;;;8.47;;
12363;SDS011;6246;50.826;4.712;2024-02-16T03:28:53;10.07;;;8.50;;
12363;SDS011;6246;50.826;4.712;2024-02-16T03:31:19;10.60;;;8.20;;
12363;SDS011;6246;50.826;4.712;2024-02-16T03:33:47;10.90;;;7.50;;
12363;SDS011;6246;50.826;4.712;2024-02-16T03:36:14;10.03;;;8.00;;
12363;SDS011;6246;50.826;4.712;2024-02-16T03:38:43;9.57;;;7.93;;
12363;SDS011;6246;50.826;4.712;2024-02-16T03:41:17;10.40;;;8.17;;
12363;SDS011;6246;50.826;4.712;2024-02-16T03:43:43;8.40;;;7.10;;
12363;SDS011;6246;50.826;4.712;2024-02-16T03:46:10;12.47;;;7.43;;
12363;SDS011;6246;50.826;4.712;2024-02-16T03:48:36;8.83;;;7.37;;
12363;SDS011;6246;50.826;4.712;2024-02-16T03:51:02;7.97;;;6.97;;
12363;SDS011;6246;50.826;4.712;2024-02-16T03:53:28;8.50;;;7.00;;
12363;SDS011;6246;50.826;4.712;2024-02-16T03:55:55;8.53;;;7.43;;
12363;SDS011;6246;50.826;4.712;2024-02-16T03:58:21;8.10;;;6.80;;
12363;SDS011;6246;50.826;4.712;2024-02-16T04:00:47;8.30;;;6.93;;
12363;SDS011;6246;50.826;4.712;2024-02-16T04:03:14;8.03;;;6.63;;
12363;SDS011;6246;50.826;4.712;2024-02-16T04:05:40;8.20;;;6.80;;
12363;SDS011;6246;50.826;4.712;2024-02-16T04:08:06;7.60;;;6.50;;
12363;SDS011;6246;50.826;4.712;2024-02-16T04:10:33;7.43;;;6.30;;
12363;SDS011;6246;50.826;4.712;2024-02-16T04:12:59;7.90;;;6.60;;
12363;SDS011;6246;50.826;4.712;2024-02-16T04:15:25;7.60;;;6.47;;
12363;SDS011;6246;50.826;4.712;2024-02-16T04:17:51;7.43;;;6.27;;
12363;SDS011;6246;50.826;4.712;2024-02-16T04:20:18;6.87;;;6.17;;
12363;SDS011;6246;50.826;4.712;2024-02-16T04:22:44;7.20;;;5.90;;
12363;SDS011;6246;50.826;4.712;2024-02-16T04:25:10;7.67;;;6.67;;
12363;SDS011;6246;50.826;4.712;2024-02-16T04:27:36;6.83;;;5.77;;
12363;SDS011;6246;50.826;4.712;2024-02-16T04:30:02;7.13;;;6.20;;
12363;SDS011;6246;50.826;4.712;2024-02-16T04:32:29;7.17;;;6.10;;
12363;SDS011;6246;50.826;4.712;2024-02-16T04:34:54;7.10;;;6.27;;
12363;SDS011;6246;50.826;4.712;2024-02-16T04:37:21;7.20;;;6.20;;
12363;SDS011;6246;50.826;4.712;2024-02-16T04:39:47;6.57;;;5.87;;
12363;SDS011;6246;50.826;4.712;2024-02-16T04:42:13;6.63;;;5.73;;
12363;SDS011;6246;50.826;4.712;2024-02-16T04:44:39;7.40;;;6.07;;
12363;SDS011;6246;50.826;4.712;2024-02-16T04:47:05;8.53;;;5.73;;
12363;SDS011;6246;50.826;4.712;2024-02-16T04:49:31;7.10;;;6.00;;
12363;SDS011;6246;50.826;4.712;2024-02-16T04:51:57;7.70;;;5.30;;
12363;SDS011;6246;50.826;4.712;2024-02-16T04:54:23;6.90;;;5.90;;
12363;SDS011;6246;50.826;4.712;2024-02-16T04:56:49;6.17;;;5.53;;
12363;SDS011;6246;50.826;4.712;2024-02-16T04:59:18;5.93;;;5.33;;
12363;SDS011;6246;50.826;4.712;2024-02-16T05:01:44;8.43;;;5.47;;
12363;SDS011;6246;50.826;4.712;2024-02-16T05:04:11;8.63;;;5.53;;
12363;SDS011;6246;50.826;4.712;2024-02-16T05:06:44;6.73;;;5.53;;
12363;SDS011;6246;50.826;4.712;2024-02-16T05:09:13;7.23;;;5.63;;
12363;SDS011;6246;50.826;4.712;2024-02-16T05:11:45;5.83;;;5.17;;
12363;SDS011;6246;50.826;4.712;2024-02-16T05:14:11;6.67;;;5.10;;
12363;SDS011;6246;50.826;4.712;2024-02-16T05:16:37;6.53;;;5.50;;
12363;SDS011;6246;50.826;4.712;2024-02-16T05:19:03;6.57;;;5.47;;
12363;SDS011;6246;50.826;4.712;2024-02-16T05:21:30;7.50;;;4.80;;
12363;SDS011;6246;50.826;4.712;2024-02-16T05:23:56;6.33;;;4.87;;
12363;SDS011;6246;50.826;4.712;2024-02-16T05:26:22;6.17;;;5.30;;
12363;SDS011;6246;50.826;4.712;2024-02-16T05:28:48;6.80;;;5.13;;
12363;SDS011;6246;50.826;4.712;2024-02-16T05:31:15;5.23;;;4.57;;
12363;SDS011;6246;50.826;4.712;2024-02-16T05:33:42;5.23;;;4.60;;
12363;SDS011;6246;50.826;4.712;2024-02-16T05:36:09;5.40;;;4.90;;
12363;SDS011;6246;50.826;4.712;2024-02-16T05:38:35;5.87;;;4.63;;
12363;SDS011;6246;50.826;4.712;2024-02-16T05:41:09;5.33;;;4.80;;
12363;SDS011;6246;50.826;4.712;2024-02-16T05:43:36;5.07;;;4.57;;
12363;SDS011;6246;50.826;4.712;2024-02-16T05:46:03;5.47;;;4.90;;
12363;SDS011;6246;50.826;4.712;2024-02-16T05:48:31;6.17;;;4.93;;
12363;SDS011;6246;50.826;4.712;2024-02-16T05:51:00;6.73;;;5.13;;
12363;SDS011;6246;50.826;4.712;2024-02-16T05:53:26;6.40;;;4.60;;
12363;SDS011;6246;50.826;4.712;2024-02-16T05:55:53;5.57;;;4.20;;
12363;SDS011;6246;50.826;4.712;2024-02-16T05:58:20;5.67;;;4.53;;
12363;SDS011;6246;50.826;4.712;2024-02-16T06:00:46;5.00;;;4.50;;
12363;SDS011;6246;50.826;4.712;2024-02-16T06:03:13;5.93;;;4.33;;
12363;SDS011;6246;50.826;4.712;2024-02-16T06:05:39;5.70;;;4.33;;
12363;SDS011;6246;50.826;4.712;2024-02-16T06:08:06;5.20;;;4.27;;
12363;SDS011;6246;50.826;4.712;2024-02-16T06:10:32;4.60;;;4.20;;
12363;SDS011;6246;50.826;4.712;2024-02-16T06:12:58;4.93;;;4.13;;
12363;SDS011;6246;50.826;4.712;2024-02-16T06:15:24;5.00;;;4.30;;
12363;SDS011;6246;50.826;4.712;2024-02-16T06:17:51;5.87;;;4.20;;
12363;SDS011;6246;50.826;4.712;2024-02-16T06:20:17;4.77;;;4.30;;
12363;SDS011;6246;50.826;4.712;2024-02-16T06:22:44;5.00;;;4.40;;
12363;SDS011;6246;50.826;4.712;2024-02-16T06:25:10;5.17;;;4.60;;
12363;SDS011;6246;50.826;4.712;2024-02-16T06:27:36;5.30;;;4.10;;
12363;SDS011;6246;50.826;4.712;2024-02-16T06:30:02;4.03;;;3.73;;
12363;SDS011;6246;50.826;4.712;2024-02-16T06:32:32;5.50;;;4.10;;
12363;SDS011;6246;50.826;4.712;2024-02-16T06:34:58;5.27;;;4.17;;
12363;SDS011;6246;50.826;4.712;2024-02-16T06:37:24;4.13;;;3.73;;
12363;SDS011;6246;50.826;4.712;2024-02-16T06:39:50;4.50;;;4.00;;
12363;SDS011;6246;50.826;4.712;2024-02-16T06:42:17;3.80;;;3.50;;
12363;SDS011;6246;50.826;4.712;2024-02-16T06:44:43;6.43;;;4.00;;
12363;SDS011;6246;50.826;4.712;2024-02-16T06:47:09;4.40;;;3.97;;
12363;SDS011;6246;50.826;4.712;2024-02-16T06:49:35;4.13;;;3.70;;
12363;SDS011;6246;50.826;4.712;2024-02-16T06:52:01;6.43;;;3.70;;
12363;SDS011;6246;50.826;4.712;2024-02-16T06:54:27;4.83;;;4.10;;
12363;SDS011;6246;50.826;4.712;2024-02-16T06:56:53;4.33;;;3.93;;
12363;SDS011;6246;50.826;4.712;2024-02-16T06:59:19;5.50;;;4.07;;
12363;SDS011;6246;50.826;4.712;2024-02-16T07:01:45;5.03;;;3.80;;
12363;SDS011;6246;50.826;4.712;2024-02-16T07:04:11;5.73;;;4.10;;
12363;SDS011;6246;50.826;4.712;2024-02-16T07:06:37;3.90;;;3.60;;
12363;SDS011;6246;50.826;4.712;2024-02-16T07:09:03;4.17;;;3.67;;
12363;SDS011;6246;50.826;4.712;2024-02-16T07:11:30;13.30;;;4.50;;
12363;SDS011;6246;50.826;4.712;2024-02-16T07:13:56;8.37;;;4.30;;
12363;SDS011;6246;50.826;4.712;2024-02-16T07:16:23;8.67;;;4.00;;
12363;SDS011;6246;50.826;4.712;2024-02-16T07:18:49;6.47;;;3.80;;
12363;SDS011;6246;50.826;4.712;2024-02-16T07:21:15;42.37;;;34.77;;
12363;SDS011;6246;50.826;4.712;2024-02-16T07:23:43;32.27;;;26.87;;
12363;SDS011;6246;50.826;4.712;2024-02-16T07:26:09;31.47;;;26.00;;
12363;SDS011;6246;50.826;4.712;2024-02-16T07:28:35;31.10;;;24.47;;
12363;SDS011;6246;50.826;4.712;2024-02-16T07:31:02;24.87;;;21.10;;
12363;SDS011;6246;50.826;4.712;2024-02-16T07:33:28;26.50;;;21.07;;
12363;SDS011;6246;50.826;4.712;2024-02-16T07:35:54;23.93;;;20.23;;
12363;SDS011;6246;50.826;4.712;2024-02-16T07:38:20;28.80;;;25.70;;
12363;SDS011;6246;50.826;4.712;2024-02-16T07:40:47;30.27;;;22.43;;
12363;SDS011;6246;50.826;4.712;2024-02-16T07:43:13;28.23;;;24.97;;
12363;SDS011;6246;50.826;4.712;2024-02-16T07:45:39;30.07;;;26.67;;
12363;SDS011;6246;50.826;4.712;2024-02-16T07:48:05;37.10;;;28.83;;
12363;SDS011;6246;50.826;4.712;2024-02-16T07:50:32;35.50;;;30.60;;
12363;SDS011;6246;50.826;4.712;2024-02-16T07:52:58;35.20;;;30.67;;
12363;SDS011;6246;50.826;4.712;2024-02-16T07:55:24;38.03;;;32.17;;
12363;SDS011;6246;50.826;4.712;2024-02-16T07:57:51;41.93;;;34.37;;
12363;SDS011;6246;50.826;4.712;2024-02-16T08:00:17;40.47;;;33.30;;
12363;SDS011;6246;50.826;4.712;2024-02-16T08:02:43;39.77;;;32.73;;
12363;SDS011;6246;50.826;4.712;2024-02-16T08:05:12;39.27;;;33.50;;
12363;SDS011;6246;50.826;4.712;2024-02-16T08:07:39;38.97;;;34.13;;
12363;SDS011;6246;50.826;4.712;2024-02-16T08:10:07;42.27;;;35.73;;
12363;SDS011;6246;50.826;4.712;2024-02-16T08:12:34;41.80;;;36.23;;
12363;SDS011;6246;50.826;4.712;2024-02-16T08:15:01;41.63;;;35.77;;
12363;SDS011;6246;50.826;4.712;2024-02-16T08:17:28;42.63;;;37.13;;
12363;SDS011;6246;50.826;4.712;2024-02-16T08:19:54;43.27;;;37.23;;
12363;SDS011;6246;50.826;4.712;2024-02-16T08:22:20;43.10;;;38.17;;
12363;SDS011;6246;50.826;4.712;2024-02-16T08:24:46;44.47;;;38.87;;
12363;SDS011;6246;50.826;4.712;2024-02-16T08:27:14;66.90;;;53.17;;
12363;SDS011;6246;50.826;4.712;2024-02-16T08:29:41;62.13;;;49.70;;
12363;SDS011;6246;50.826;4.712;2024-02-16T08:32:07;56.73;;;48.03;;
12363;SDS011;6246;50.826;4.712;2024-02-16T08:34:34;76.77;;;63.90;;
12363;SDS011;6246;50.826;4.712;2024-02-16T08:37:01;73.73;;;56.17;;
12363;SDS011;6246;50.826;4.712;2024-02-16T08:39:28;61.17;;;53.87;;
12363;SDS011;6246;50.826;4.712;2024-02-16T08:41:54;60.47;;;51.67;;
12363;SDS011;6246;50.826;4.712;2024-02-16T08:44:20;55.50;;;49.30;;
12363;SDS011;6246;50.826;4.712;2024-02-16T08:46:46;53.13;;;45.47;;
12363;SDS011;6246;50.826;4.712;2024-02-16T08:49:14;51.97;;;45.77;;
12363;SDS011;6246;50.826;4.712;2024-02-16T08:51:41;56.47;;;48.03;;
12363;SDS011;6246;50.826;4.712;2024-02-16T08:54:07;61.10;;;51.80;;
12363;SDS011;6246;50.826;4.712;2024-02-16T08:56:33;58.83;;;51.13;;
12363;SDS011;6246;50.826;4.712;2024-02-16T08:59:01;55.93;;;49.67;;
12363;SDS011;6246;50.826;4.712;2024-02-16T09:02:00;59.67;;;52.77;;
12363;SDS011;6246;50.826;4.712;2024-02-16T09:04:19;63.77;;;54.93;;
12363;SDS011;6246;50.826;4.712;2024-02-16T09:06:45;64.47;;;54.70;;
12363;SDS011;6246;50.826;4.712;2024-02-16T09:09:11;62.50;;;55.50;;
12363;SDS011;6246;50.826;4.712;2024-02-16T09:11:37;62.40;;;55.57;;
12363;SDS011;6246;50.826;4.712;2024-02-16T09:14:03;64.33;;;57.27;;
12363;SDS011;6246;50.826;4.712;2024-02-16T09:16:29;65.77;;;58.60;;
12363;SDS011;6246;50.826;4.712;2024-02-16T09:18:55;62.87;;;56.07;;
12363;SDS011;6246;50.826;4.712;2024-02-16T09:21:23;64.60;;;57.60;;
12363;SDS011;6246;50.826;4.712;2024-02-16T09:23:52;62.80;;;55.77;;
12363;SDS011;6246;50.826;4.712;2024-02-16T09:26:18;62.23;;;55.47;;
12363;SDS011;6246;50.826;4.712;2024-02-16T09:28:44;65.87;;;57.57;;
12363;SDS011;6246;50.826;4.712;2024-02-16T09:31:13;61.40;;;54.80;;
12363;SDS011;6246;50.826;4.712;2024-02-16T09:33:40;64.53;;;57.60;;
12363;SDS011;6246;50.826;4.712;2024-02-16T09:36:06;61.97;;;55.17;;
12363;SDS011;6246;50.826;4.712;2024-02-16T09:38:32;65.83;;;58.27;;
12363;SDS011;6246;50.826;4.712;2024-02-16T09:40:58;65.70;;;58.63;;
12363;SDS011;6246;50.826;4.712;2024-02-16T09:43:25;66.03;;;57.60;;
12363;SDS011;6246;50.826;4.712;2024-02-16T09:45:54;63.60;;;56.00;;
12363;SDS011;6246;50.826;4.712;2024-02-16T09:48:21;61.93;;;55.27;;
12363;SDS011;6246;50.826;4.712;2024-02-16T09:50:48;62.37;;;55.47;;
12363;SDS011;6246;50.826;4.712;2024-02-16T09:53:14;64.90;;;57.30;;
12363;SDS011;6246;50.826;4.712;2024-02-16T09:55:40;63.30;;;56.07;;
12363;SDS011;6246;50.826;4.712;2024-02-16T09:58:07;66.23;;;57.33;;
12363;SDS011;6246;50.826;4.712;2024-02-16T10:00:33;64.67;;;57.70;;
12363;SDS011;6246;50.826;4.712;2024-02-16T10:02:59;64.23;;;57.33;;
12363;SDS011;6246;50.826;4.712;2024-02-16T10:05:25;64.63;;;57.30;;
12363;SDS011;6246;50.826;4.712;2024-02-16T10:07:51;63.90;;;57.00;;
12363;SDS011;6246;50.826;4.712;2024-02-16T10:12:50;62.37;;;55.57;;
12363;SDS011;6246;50.826;4.712;2024-02-16T10:15:20;63.50;;;56.50;;
12363;SDS011;6246;50.826;4.712;2024-02-16T10:18:02;61.70;;;54.93;;
12363;SDS011;6246;50.826;4.712;2024-02-16T10:20:29;62.57;;;55.60;;
12363;SDS011;6246;50.826;4.712;2024-02-16T10:23:02;60.10;;;53.60;;
12363;SDS011;6246;50.826;4.712;2024-02-16T10:25:28;60.47;;;54.07;;
12363;SDS011;6246;50.826;4.712;2024-02-16T10:27:54;61.07;;;54.37;;
12363;SDS011;6246;50.826;4.712;2024-02-16T10:30:20;60.47;;;53.93;;
12363;SDS011;6246;50.826;4.712;2024-02-16T10:32:48;61.83;;;55.07;;
12363;SDS011;6246;50.826;4.712;2024-02-16T10:35:14;62.20;;;54.80;;
12363;SDS011;6246;50.826;4.712;2024-02-16T10:37:42;58.53;;;52.23;;
12363;SDS011;6246;50.826;4.712;2024-02-16T10:40:09;59.13;;;52.60;;
12363;SDS011;6246;50.826;4.712;2024-02-16T10:42:38;59.43;;;51.90;;
12363;SDS011;6246;50.826;4.712;2024-02-16T10:45:05;57.73;;;51.50;;
12363;SDS011;6246;50.826;4.712;2024-02-16T10:47:31;58.83;;;52.37;;
12363;SDS011;6246;50.826;4.712;2024-02-16T10:49:57;58.77;;;52.00;;
12363;SDS011;6246;50.826;4.712;2024-02-16T10:52:23;58.53;;;52.30;;
12363;SDS011;6246;50.826;4.712;2024-02-16T10:54:50;54.37;;;48.33;;
12363;SDS011;6246;50.826;4.712;2024-02-16T10:57:16;56.90;;;50.80;;
12363;SDS011;6246;50.826;4.712;2024-02-16T10:59:43;54.30;;;48.40;;
12363;SDS011;6246;50.826;4.712;2024-02-16T11:02:10;56.13;;;50.13;;
12363;SDS011;6246;50.826;4.712;2024-02-16T11:04:38;53.10;;;47.40;;
12363;SDS011;6246;50.826;4.712;2024-02-16T11:07:10;52.23;;;46.63;;
12363;SDS011;6246;50.826;4.712;2024-02-16T11:09:38;53.23;;;47.43;;
12363;SDS011;6246;50.826;4.712;2024-02-16T11:12:04;53.73;;;47.83;;
12363;SDS011;6246;50.826;4.712;2024-02-16T11:14:36;51.77;;;46.00;;
12363;SDS011;6246;50.826;4.712;2024-02-16T11:17:09;51.63;;;46.03;;
12363;SDS011;6246;50.826;4.712;2024-02-16T11:19:36;51.17;;;45.73;;
12363;SDS011;6246;50.826;4.712;2024-02-16T11:22:05;50.07;;;44.43;;
12363;SDS011;6246;50.826;4.712;2024-02-16T11:24:34;49.70;;;44.30;;
12363;SDS011;6246;50.826;4.712;2024-02-16T11:27:04;49.57;;;44.17;;
12363;SDS011;6246;50.826;4.712;2024-02-16T11:29:34;50.53;;;45.13;;
12363;SDS011;6246;50.826;4.712;2024-02-16T11:32:00;49.50;;;44.10;;
12363;SDS011;6246;50.826;4.712;2024-02-16T11:34:28;49.10;;;43.73;;
12363;SDS011;6246;50.826;4.712;2024-02-16T11:37:03;49.90;;;44.47;;
12363;SDS011;6246;50.826;4.712;2024-02-16T11:39:32;49.23;;;43.37;;
12363;SDS011;6246;50.826;4.712;2024-02-16T11:42:02;47.03;;;42.00;;
12363;SDS011;6246;50.826;4.712;2024-02-16T11:44:29;46.10;;;41.13;;
12363;SDS011;6246;50.826;4.712;2024-02-16T11:46:57;46.30;;;40.67;;
12363;SDS011;6246;50.826;4.712;2024-02-16T11:49:23;56.80;;;39.47;;
12363;SDS011;6246;50.826;4.712;2024-02-16T11:51:49;48.83;;;39.90;;
12363;SDS011;6246;50.826;4.712;2024-02-16T11:54:15;47.40;;;40.23;;
12363;SDS011;6246;50.826;4.712;2024-02-16T11:56:51;47.97;;;38.13;;
12363;SDS011;6246;50.826;4.712;2024-02-16T11:59:18;46.67;;;38.20;;
12363;SDS011;6246;50.826;4.712;2024-02-16T12:01:48;43.87;;;36.80;;
12363;SDS011;6246;50.826;4.712;2024-02-16T12:04:21;42.03;;;37.33;;
12363;SDS011;6246;50.826;4.712;2024-02-16T12:06:47;42.83;;;35.97;;
12363;SDS011;6246;50.826;4.712;2024-02-16T12:09:16;41.23;;;34.07;;
12363;SDS011;6246;50.826;4.712;2024-02-16T12:11:42;41.00;;;33.83;;
12363;SDS011;6246;50.826;4.712;2024-02-16T12:14:08;38.60;;;32.47;;
12363;SDS011;6246;50.826;4.712;2024-02-16T12:16:34;50.00;;;31.83;;
12363;SDS011;6246;50.826;4.712;2024-02-16T12:19:06;37.10;;;31.20;;
12363;SDS011;6246;50.826;4.712;2024-02-16T12:21:32;42.83;;;33.07;;
12363;SDS011;6246;50.826;4.712;2024-02-16T12:23:59;35.17;;;31.40;;
12363;SDS011;6246;50.826;4.712;2024-02-16T12:26:25;43.77;;;37.63;;
12363;SDS011;6246;50.826;4.712;2024-02-16T12:28:51;40.73;;;36.20;;
12363;SDS011;6246;50.826;4.712;2024-02-16T12:31:20;42.03;;;37.33;;
12363;SDS011;6246;50.826;4.712;2024-02-16T12:33:47;47.70;;;38.70;;
12363;SDS011;6246;50.826;4.712;2024-02-16T12:36:13;44.47;;;39.57;;
12363;SDS011;6246;50.826;4.712;2024-02-16T12:38:39;44.93;;;36.97;;
12363;SDS011;6246;50.826;4.712;2024-02-16T12:41:05;41.50;;;36.50;;
12363;SDS011;6246;50.826;4.712;2024-02-16T12:43:32;43.33;;;38.57;;
12363;SDS011;6246;50.826;4.712;2024-02-16T12:45:58;44.40;;;38.30;;
12363;SDS011;6246;50.826;4.712;2024-02-16T12:48:27;44.93;;;37.37;;
12363;SDS011;6246;50.826;4.712;2024-02-16T12:50:53;43.40;;;37.20;;
12363;SDS011;6246;50.826;4.712;2024-02-16T12:53:19;52.77;;;47.03;;
12363;SDS011;6246;50.826;4.712;2024-02-16T12:55:46;50.00;;;42.87;;
12363;SDS011;6246;50.826;4.712;2024-02-16T12:58:12;48.90;;;41.90;;
12363;SDS011;6246;50.826;4.712;2024-02-16T13:00:38;45.73;;;36.17;;
12363;SDS011;6246;50.826;4.712;2024-02-16T13:03:04;45.60;;;38.17;;
12363;SDS011;6246;50.826;4.712;2024-02-16T13:05:30;43.63;;;37.53;;
12363;SDS011;6246;50.826;4.712;2024-02-16T13:07:58;42.30;;;37.70;;
12363;SDS011;6246;50.826;4.712;2024-02-16T13:10:24;41.63;;;36.13;;
12363;SDS011;6246;50.826;4.712;2024-02-16T13:12:50;39.73;;;33.47;;
12363;SDS011;6246;50.826;4.712;2024-02-16T13:15:16;35.67;;;31.87;;
12363;SDS011;6246;50.826;4.712;2024-02-16T13:17:42;38.23;;;31.90;;
12363;SDS011;6246;50.826;4.712;2024-02-16T13:20:08;39.13;;;32.77;;
12363;SDS011;6246;50.826;4.712;2024-02-16T13:22:37;34.63;;;30.83;;
12363;SDS011;6246;50.826;4.712;2024-02-16T13:25:03;34.30;;;30.60;;
12363;SDS011;6246;50.826;4.712;2024-02-16T13:27:30;32.43;;;28.93;;
12363;SDS011;6246;50.826;4.712;2024-02-16T13:29:56;34.60;;;29.70;;
12363;SDS011;6246;50.826;4.712;2024-02-16T13:32:22;38.77;;;30.57;;
12363;SDS011;6246;50.826;4.712;2024-02-16T13:34:48;31.53;;;27.97;;
12363;SDS011;6246;50.826;4.712;2024-02-16T13:37:14;30.93;;;27.57;;
12363;SDS011;6246;50.826;4.712;2024-02-16T13:39:40;34.83;;;30.47;;
12363;SDS011;6246;50.826;4.712;2024-02-16T13:42:09;33.30;;;28.13;;
12363;SDS011;6246;50.826;4.712;2024-02-16T13:44:35;33.60;;;28.77;;
12363;SDS011;6246;50.826;4.712;2024-02-16T13:47:02;31.50;;;28.13;;
12363;SDS011;6246;50.826;4.712;2024-02-16T13:49:28;34.97;;;28.17;;
12363;SDS011;6246;50.826;4.712;2024-02-16T13:51:54;33.13;;;26.40;;
12363;SDS011;6246;50.826;4.712;2024-02-16T13:54:23;32.03;;;25.57;;
12363;SDS011;6246;50.826;4.712;2024-02-16T13:56:49;36.67;;;31.07;;
12363;SDS011;6246;50.826;4.712;2024-02-16T13:59:15;25.90;;;23.00;;
12363;SDS011;6246;50.826;4.712;2024-02-16T14:01:41;30.20;;;24.30;;
12363;SDS011;6246;50.826;4.712;2024-02-16T14:04:07;30.90;;;24.13;;
12363;SDS011;6246;50.826;4.712;2024-02-16T14:06:33;28.77;;;23.30;;
12363;SDS011;6246;50.826;4.712;2024-02-16T14:09:00;28.53;;;23.63;;
12363;SDS011;6246;50.826;4.712;2024-02-16T14:11:26;25.70;;;22.33;;
12363;SDS011;6246;50.826;4.712;2024-02-16T14:13:52;25.37;;;21.90;;
12363;SDS011;6246;50.826;4.712;2024-02-16T14:16:18;27.57;;;22.00;;
12363;SDS011;6246;50.826;4.712;2024-02-16T14:18:44;25.83;;;21.43;;
12363;SDS011;6246;50.826;4.712;2024-02-16T14:21:10;23.10;;;19.33;;
12363;SDS011;6246;50.826;4.712;2024-02-16T14:23:37;25.07;;;20.70;;
12363;SDS011;6246;50.826;4.712;2024-02-16T14:26:03;26.60;;;20.13;;
12363;SDS011;6246;50.826;4.712;2024-02-16T14:28:29;24.20;;;19.97;;
12363;SDS011;6246;50.826;4.712;2024-02-16T14:30:55;25.40;;;19.30;;
12363;SDS011;6246;50.826;4.712;2024-02-16T14:33:22;23.40;;;19.80;;
12363;SDS011;6246;50.826;4.712;2024-02-16T14:35:48;22.70;;;18.13;;
12363;SDS011;6246;50.826;4.712;2024-02-16T14:38:15;26.17;;;15.40;;
12363;SDS011;6246;50.826;4.712;2024-02-16T14:40:41;21.70;;;13.53;;
12363;SDS011;6246;50.826;4.712;2024-02-16T14:43:07;17.97;;;12.87;;